createdAt,value
2023-02-03T00:00:07.001Z,3.90
2023-02-03T00:02:33.698Z,2.17
2023-02-03T00:05:00.311Z,3.28
2023-02-03T00:07:27.804Z,2.45
2023-02-03T00:09:56.449Z,2.92
2023-02-03T00:12:23.310Z,3.78
2023-02-03T00:14:49.900Z,3.35
2023-02-03T00:17:16.507Z,2.78
2023-02-03T00:19:43.219Z,2.92
2023-02-03T00:22:09.830Z,3.05
2023-02-03T00:24:36.430Z,2.38
2023-02-03T00:27:03.033Z,2.80
2023-02-03T00:29:29.615Z,2.90
2023-02-03T00:31:56.554Z,2.45
2023-02-03T00:34:23.583Z,3.42
2023-02-03T00:36:50.407Z,2.47
2023-02-03T00:39:17.339Z,2.80
2023-02-03T00:41:44.016Z,2.92
2023-02-03T00:44:10.987Z,2.42
2023-02-03T00:46:38.102Z,3.15
2023-02-03T00:49:04.932Z,2.83
2023-02-03T00:51:32.579Z,2.75
2023-02-03T00:53:59.211Z,2.80
2023-02-03T00:56:25.893Z,2.83
2023-02-03T00:58:52.564Z,3.13
2023-02-03T01:01:19.248Z,3.15
2023-02-03T01:03:45.917Z,2.33
2023-02-03T01:06:19.354Z,2.58
2023-02-03T01:08:46.915Z,3.80
2023-02-03T01:11:27.938Z,3.20
2023-02-03T01:13:56.706Z,3.08
2023-02-03T01:16:24.366Z,4.03
2023-02-03T01:18:51.145Z,3.28
2023-02-03T01:21:20.440Z,3.05
2023-02-03T01:23:47.387Z,2.65
2023-02-03T01:26:16.637Z,3.00
2023-02-03T01:28:43.590Z,2.97
2023-02-03T01:31:12.898Z,2.70
2023-02-03T01:33:46.073Z,4.03
2023-02-03T01:36:14.193Z,2.90
2023-02-03T01:38:40.822Z,3.17
2023-02-03T01:41:12.330Z,2.97
2023-02-03T01:43:43.184Z,2.72
2023-02-03T01:46:26.144Z,2.33
2023-02-03T01:48:55.601Z,2.42
2023-02-03T01:51:23.450Z,2.67
2023-02-03T01:53:53.082Z,2.50
2023-02-03T01:56:20.583Z,3.35
2023-02-03T01:58:48.224Z,2.97
2023-02-03T02:01:15.223Z,2.80
2023-02-03T02:03:55.447Z,3.05
2023-02-03T02:06:22.050Z,3.00
2023-02-03T02:08:51.944Z,4.18
2023-02-03T02:11:21.313Z,2.78
2023-02-03T02:13:49.993Z,3.60
2023-02-03T02:16:27.598Z,4.22
2023-02-03T02:19:21.897Z,2.28
2023-02-03T02:21:59.628Z,3.65
2023-02-03T02:24:45.131Z,3.85
2023-02-03T02:27:35.049Z,2.63
2023-02-03T02:30:23.837Z,1.80
2023-02-03T02:33:28.264Z,2.80
2023-02-03T02:36:22.633Z,2.78
2023-02-03T02:39:05.997Z,2.72
2023-02-03T02:41:42.457Z,2.80
2023-02-03T02:44:24.399Z,4.30
2023-02-03T02:46:54.992Z,2.60
2023-02-03T02:49:38.253Z,2.97
2023-02-03T02:52:07.274Z,2.50
2023-02-03T02:54:40.671Z,2.95
2023-02-03T02:57:10.948Z,2.05
2023-02-03T02:59:37.742Z,2.47
2023-02-03T03:02:04.370Z,2.00
2023-02-03T03:04:33.938Z,4.53
2023-02-03T03:07:08.294Z,3.15
2023-02-03T03:10:04.095Z,2.42
2023-02-03T03:12:37.231Z,3.35
2023-02-03T03:15:09.347Z,1.50
2023-02-03T03:17:42.223Z,2.05
2023-02-03T03:20:15.364Z,3.08
2023-02-03T03:22:50.327Z,2.75
2023-02-03T03:25:21.485Z,2.00
2023-02-03T03:27:56.861Z,2.05
2023-02-03T03:30:29.540Z,2.13
2023-02-03T03:32:58.453Z,3.40
2023-02-03T03:35:31.024Z,2.55
2023-02-03T03:38:03.813Z,2.13
2023-02-03T03:40:38.550Z,2.30
2023-02-03T03:46:03.005Z,1.80
2023-02-03T03:48:35.100Z,2.20
2023-02-03T03:51:12.094Z,2.67
2023-02-03T03:53:42.787Z,2.33
2023-02-03T03:56:15.767Z,2.33
2023-02-03T03:58:46.787Z,2.88
2023-02-03T04:01:15.994Z,2.10
2023-02-03T04:03:53.630Z,1.88
2023-02-03T04:06:20.344Z,2.10
2023-02-03T04:08:46.984Z,1.10
2023-02-03T04:11:33.680Z,2.75
2023-02-03T04:14:00.260Z,2.15
2023-02-03T04:16:26.984Z,2.35
2023-02-03T04:18:53.751Z,2.03
2023-02-03T04:21:20.392Z,1.90
2023-02-03T04:23:47.100Z,2.03
2023-02-03T04:26:13.804Z,2.63
2023-02-03T04:28:40.399Z,2.35
2023-02-03T04:31:07.059Z,1.70
2023-02-03T04:33:33.673Z,2.38
2023-02-03T04:36:00.273Z,2.47
2023-02-03T04:38:26.877Z,2.28
2023-02-03T04:40:53.440Z,2.50
2023-02-03T04:43:20.037Z,1.92
2023-02-03T04:45:46.686Z,3.35
2023-02-03T04:48:13.307Z,2.10
2023-02-03T04:50:39.906Z,2.35
2023-02-03T04:53:06.529Z,2.28
2023-02-03T04:55:33.149Z,2.60
2023-02-03T04:58:01.230Z,2.03
2023-02-03T05:00:29.616Z,1.90
2023-02-03T05:02:56.600Z,1.98
2023-02-03T05:05:23.317Z,3.78
2023-02-03T05:07:49.901Z,4.10
2023-02-03T05:10:16.583Z,3.00
2023-02-03T05:12:44.090Z,2.45
2023-02-03T05:15:10.987Z,2.05
2023-02-03T05:17:39.900Z,2.03
2023-02-03T05:20:07.502Z,2.38
2023-02-03T05:22:35.521Z,2.10
2023-02-03T05:25:03.442Z,2.17
2023-02-03T05:27:30.496Z,3.10
2023-02-03T05:29:57.132Z,2.00
2023-02-03T05:32:23.720Z,3.30
2023-02-03T05:34:50.305Z,2.20
2023-02-03T05:37:16.911Z,2.40
2023-02-03T05:39:43.552Z,2.28
2023-02-03T05:42:10.136Z,2.50
2023-02-03T05:44:36.703Z,2.35
2023-02-03T05:47:03.401Z,2.38
2023-02-03T05:49:30.066Z,3.80
2023-02-03T05:51:57.041Z,2.47
2023-02-03T05:54:23.778Z,2.80
2023-02-03T05:56:50.695Z,2.22
2023-02-03T05:59:17.393Z,2.67
2023-02-03T06:01:44.053Z,3.13
2023-02-03T06:04:10.825Z,2.03
2023-02-03T06:06:37.535Z,2.40
2023-02-03T06:09:07.181Z,2.90
2023-02-03T06:11:36.014Z,2.70
2023-02-03T06:14:03.435Z,2.35
2023-02-03T06:16:30.322Z,2.30
2023-02-03T06:19:03.633Z,2.88
2023-02-03T06:21:30.451Z,2.95
2023-02-03T06:23:57.150Z,3.10
2023-02-03T06:26:24.998Z,1.88
2023-02-03T06:28:51.613Z,2.45
2023-02-03T06:31:18.330Z,2.85
2023-02-03T06:33:45.289Z,2.33
2023-02-03T06:36:12.238Z,3.45
2023-02-03T06:38:39.071Z,2.60
2023-02-03T06:41:05.800Z,2.13
2023-02-03T06:43:32.488Z,3.00
2023-02-03T06:45:59.380Z,2.67
2023-02-03T06:48:26.083Z,2.03
2023-02-03T06:50:52.718Z,2.45
2023-02-03T06:53:19.352Z,2.03
2023-02-03T06:55:47.954Z,2.15
2023-02-03T06:58:14.801Z,2.42
2023-02-03T07:00:41.388Z,2.33
2023-02-03T07:03:08.043Z,2.42
2023-02-03T07:05:35.944Z,2.67
2023-02-03T07:08:02.742Z,2.95
2023-02-03T07:10:29.650Z,2.50
2023-02-03T07:13:02.867Z,2.78
2023-02-03T07:15:29.580Z,3.40
2023-02-03T07:17:56.864Z,3.40
2023-02-03T07:20:24.558Z,2.65
2023-02-03T07:22:55.952Z,2.58
2023-02-03T07:25:24.031Z,3.30
2023-02-03T07:27:51.432Z,3.90
2023-02-03T07:30:18.439Z,2.47
2023-02-03T07:32:49.573Z,3.60
2023-02-03T07:35:16.904Z,4.45
2023-02-03T07:37:43.750Z,4.30
2023-02-03T07:40:12.737Z,3.45
2023-02-03T07:42:43.946Z,4.90
2023-02-03T07:45:12.327Z,3.45
2023-02-03T07:47:39.239Z,3.05
2023-02-03T07:50:06.249Z,2.90
2023-02-03T07:52:32.918Z,3.65
2023-02-03T07:54:59.628Z,2.40
2023-02-03T07:57:29.269Z,3.33
2023-02-03T07:59:55.931Z,3.38
2023-02-03T08:02:22.608Z,3.58
2023-02-03T08:04:49.412Z,3.20
2023-02-03T08:07:16.116Z,3.45
2023-02-03T08:09:42.730Z,3.63
2023-02-03T08:12:09.323Z,2.70
2023-02-03T08:14:35.909Z,3.13
2023-02-03T08:17:02.520Z,3.25
2023-02-03T08:19:29.425Z,2.35
2023-02-03T08:21:56.695Z,2.47
2023-02-03T08:24:23.586Z,2.85
2023-02-03T08:26:50.176Z,4.00
2023-02-03T08:29:16.810Z,5.22
2023-02-03T08:31:43.511Z,3.42
2023-02-03T08:34:10.395Z,4.47
2023-02-03T08:36:39.928Z,2.83
2023-02-03T08:39:07.174Z,3.40
2023-02-03T08:41:34.295Z,2.65
2023-02-03T08:44:01.381Z,3.67
2023-02-03T08:46:28.612Z,3.05
2023-02-03T08:48:56.495Z,2.65
2023-02-03T08:51:24.495Z,2.03
2023-02-03T08:53:51.819Z,2.40
2023-02-03T08:56:18.622Z,2.70
2023-02-03T08:58:45.367Z,4.32
2023-02-03T09:01:15.771Z,2.50
2023-02-03T09:03:42.561Z,1.90
2023-02-03T09:06:11.775Z,2.63
2023-02-03T09:08:38.939Z,2.40
2023-02-03T09:11:10.607Z,3.33
2023-02-03T09:13:38.787Z,2.88
2023-02-03T09:16:07.326Z,2.30
2023-02-03T09:18:34.310Z,1.83
2023-02-03T09:21:02.899Z,3.45
2023-02-03T09:23:29.866Z,2.65
2023-02-03T09:25:56.688Z,2.83
2023-02-03T09:28:23.395Z,2.60
2023-02-03T09:30:50.011Z,2.38
2023-02-03T09:33:16.627Z,4.55
2023-02-03T09:35:51.127Z,2.75
2023-02-03T09:38:17.712Z,3.13
2023-02-03T09:40:45.059Z,2.60
2023-02-03T09:43:35.779Z,2.15
2023-02-03T09:46:25.791Z,2.15
2023-02-03T09:49:02.864Z,2.30
2023-02-03T09:51:37.278Z,2.97
2023-02-03T09:54:19.468Z,2.42
2023-02-03T09:56:52.899Z,2.90
2023-02-03T09:59:19.849Z,3.70
2023-02-03T10:02:05.509Z,2.50
2023-02-03T10:04:41.818Z,2.60
2023-02-03T10:07:25.576Z,3.58
2023-02-03T10:09:55.072Z,2.58
2023-02-03T10:12:30.733Z,2.30
2023-02-03T10:15:30.571Z,2.05
2023-02-03T10:18:03.977Z,2.83
2023-02-03T10:20:39.668Z,2.30
2023-02-03T10:23:46.584Z,2.53
2023-02-03T10:26:20.360Z,3.03
2023-02-03T10:28:58.727Z,3.00
2023-02-03T10:31:28.295Z,2.75
2023-02-03T10:34:16.734Z,2.25
2023-02-03T10:37:17.670Z,2.30
2023-02-03T10:39:52.727Z,2.58
2023-02-03T10:42:22.045Z,2.45
2023-02-03T10:44:58.398Z,2.97
2023-02-03T10:47:39.701Z,2.80
2023-02-03T10:50:15.996Z,1.85
2023-02-03T10:52:42.775Z,2.70
2023-02-03T10:55:32.022Z,4.03
2023-02-03T10:58:05.858Z,4.05
2023-02-03T11:00:35.985Z,2.90
2023-02-03T11:03:25.629Z,2.45
2023-02-03T11:06:08.980Z,2.22
2023-02-03T11:08:38.459Z,2.95
2023-02-03T11:11:07.804Z,2.78
2023-02-03T11:13:35.100Z,2.65
2023-02-03T11:16:17.326Z,2.67
2023-02-03T11:19:00.651Z,2.85
2023-02-03T11:21:37.906Z,2.88
2023-02-03T11:24:26.684Z,3.83
2023-02-03T11:26:56.027Z,2.50
2023-02-03T11:29:24.226Z,2.80
2023-02-03T11:31:53.734Z,2.75
2023-02-03T11:34:36.400Z,3.15
2023-02-03T11:37:37.343Z,2.25
2023-02-03T11:40:07.321Z,2.20
2023-02-03T11:42:38.389Z,1.88
2023-02-03T11:45:47.759Z,2.83
2023-02-03T11:48:18.014Z,2.38
2023-02-03T11:50:54.075Z,2.63
2023-02-03T11:53:51.222Z,2.83
2023-02-03T11:56:32.893Z,2.53
2023-02-03T11:59:20.026Z,2.65
2023-02-03T12:02:32.133Z,2.40
2023-02-03T12:05:26.705Z,2.70
2023-02-03T12:07:56.441Z,3.97
2023-02-03T12:10:37.903Z,2.05
2023-02-03T12:13:24.795Z,2.15
2023-02-03T12:16:29.585Z,2.25
2023-02-03T12:19:11.478Z,2.40
2023-02-03T12:21:45.701Z,2.17
2023-02-03T12:24:12.272Z,2.83
2023-02-03T12:26:49.838Z,2.20
2023-02-03T12:29:21.702Z,2.78
2023-02-03T12:32:08.336Z,2.63
2023-02-03T12:34:45.887Z,3.50
2023-02-03T12:37:22.353Z,2.35
2023-02-03T12:40:21.433Z,2.92
2023-02-03T12:42:56.305Z,2.95
2023-02-03T12:45:30.743Z,2.20
2023-02-03T12:48:05.089Z,2.42
2023-02-03T12:50:57.828Z,2.72
2023-02-03T12:53:30.889Z,2.67
2023-02-03T12:56:07.401Z,2.03
2023-02-03T12:59:02.713Z,3.80
2023-02-03T13:01:38.602Z,4.20
2023-02-03T13:04:31.295Z,2.88
2023-02-03T13:07:10.839Z,2.72
2023-02-03T13:09:39.970Z,2.83
2023-02-03T13:12:25.030Z,2.28
2023-02-03T13:17:37.943Z,3.05
2023-02-03T13:20:15.057Z,2.70
2023-02-03T13:22:42.027Z,2.85
2023-02-03T13:25:31.409Z,2.80
2023-02-03T13:28:08.217Z,1.92
2023-02-03T13:30:43.715Z,2.70
2023-02-03T13:33:41.260Z,2.60
2023-02-03T13:36:25.927Z,4.47
2023-02-03T13:39:25.128Z,2.60
2023-02-03T13:41:55.775Z,3.42
2023-02-03T13:44:28.515Z,2.95
2023-02-03T13:46:58.884Z,3.13
2023-02-03T13:49:32.730Z,2.22
2023-02-03T13:51:59.991Z,3.20
2023-02-03T13:54:31.782Z,2.60
2023-02-03T13:57:04.417Z,2.30
2023-02-03T13:59:40.637Z,3.00
2023-02-03T14:02:19.699Z,3.10
2023-02-03T14:04:46.389Z,2.58
2023-02-03T14:07:38.022Z,3.00
2023-02-03T14:10:14.037Z,3.22
2023-02-03T14:12:49.552Z,2.75
2023-02-03T14:15:28.807Z,3.25
2023-02-03T14:18:25.941Z,2.80
2023-02-03T14:21:10.377Z,2.55
2023-02-03T14:24:03.887Z,2.60
2023-02-03T14:26:43.531Z,3.30
2023-02-03T14:29:24.439Z,2.60
2023-02-03T14:32:01.886Z,3.00
2023-02-03T14:34:34.301Z,2.90
2023-02-03T14:37:11.244Z,2.95
2023-02-03T14:39:59.804Z,2.88
2023-02-03T14:42:58.602Z,3.40
2023-02-03T14:45:50.496Z,3.57
2023-02-03T14:48:29.419Z,2.35
2023-02-03T14:51:13.813Z,2.35
2023-02-03T14:53:51.535Z,1.88
2023-02-03T14:56:21.393Z,3.00
2023-02-03T14:58:53.995Z,2.72
2023-02-03T15:01:35.749Z,2.55
2023-02-03T15:04:11.349Z,2.55
2023-02-03T15:06:43.277Z,2.20
2023-02-03T15:09:45.845Z,2.67
2023-02-03T15:12:23.921Z,2.85
2023-02-03T15:14:50.806Z,2.80
2023-02-03T15:17:27.805Z,3.45
2023-02-03T15:19:55.039Z,3.00
2023-02-03T15:22:30.256Z,2.97
2023-02-03T15:25:04.080Z,3.53
2023-02-03T15:27:32.634Z,2.40
2023-02-03T15:30:13.896Z,3.47
2023-02-03T15:32:50.084Z,2.95
2023-02-03T15:35:19.443Z,2.88
2023-02-03T15:37:57.568Z,2.83
2023-02-03T15:40:31.381Z,3.45
2023-02-03T15:43:07.751Z,2.77
2023-02-03T15:45:46.112Z,3.17
2023-02-03T15:48:43.899Z,3.38
2023-02-03T15:51:17.025Z,2.55
2023-02-03T15:53:58.348Z,2.63
2023-02-03T15:56:37.661Z,3.28
2023-02-03T15:59:06.501Z,2.50
2023-02-03T16:01:33.494Z,3.33
2023-02-03T16:04:00.440Z,3.65
2023-02-03T16:06:36.933Z,2.90
2023-02-03T16:09:04.451Z,3.88
2023-02-03T16:11:36.875Z,3.83
2023-02-03T16:14:11.820Z,2.42
2023-02-03T16:16:49.408Z,3.38
2023-02-03T16:19:23.468Z,3.88
2023-02-03T16:21:50.098Z,4.43
2023-02-03T16:24:40.151Z,4.00
2023-02-03T16:27:25.369Z,4.30
2023-02-03T16:30:23.631Z,4.88
2023-02-03T16:33:27.066Z,3.10
2023-02-03T16:36:13.085Z,3.75
2023-02-03T16:39:06.689Z,4.30
2023-02-03T16:41:52.268Z,4.28
2023-02-03T16:44:37.989Z,4.43
2023-02-03T16:47:41.798Z,5.97
2023-02-03T16:50:38.530Z,4.28
2023-02-03T16:53:09.290Z,4.85
2023-02-03T16:55:35.978Z,4.28
2023-02-03T16:58:02.648Z,4.63
2023-02-03T17:00:29.480Z,5.50
2023-02-03T17:02:58.536Z,4.68
2023-02-03T17:05:25.302Z,4.80
2023-02-03T17:07:51.937Z,4.43
2023-02-03T17:10:18.725Z,4.22
2023-02-03T17:12:45.386Z,4.78
2023-02-03T17:15:12.234Z,4.70
2023-02-03T17:17:38.915Z,5.00
2023-02-03T17:20:06.005Z,5.30
2023-02-03T17:22:33.980Z,4.43
2023-02-03T17:25:00.680Z,5.03
2023-02-03T17:27:27.309Z,4.75
2023-02-03T17:29:53.962Z,4.78
2023-02-03T17:32:20.671Z,4.30
2023-02-03T17:34:47.295Z,5.40
2023-02-03T17:37:13.928Z,4.07
2023-02-03T17:53:22.392Z,5.28
2023-02-03T17:55:50.311Z,5.72
2023-02-03T17:58:16.998Z,5.10
2023-02-03T18:00:43.610Z,5.93
2023-02-03T18:03:10.251Z,5.70
2023-02-03T18:05:38.234Z,5.18
2023-02-03T18:08:12.388Z,5.28
2023-02-03T18:10:43.335Z,5.30
2023-02-03T18:13:10.258Z,6.03
2023-02-03T18:15:38.511Z,5.30
2023-02-03T18:18:05.286Z,4.60
2023-02-03T18:20:32.922Z,5.25
2023-02-03T18:22:59.523Z,4.70
2023-02-03T18:25:26.229Z,4.93
2023-02-03T18:27:58.182Z,4.85
2023-02-03T18:30:27.511Z,4.07
2023-02-03T18:32:54.157Z,4.93
2023-02-03T18:35:20.908Z,4.85
2023-02-03T18:37:47.626Z,4.60
2023-02-03T18:40:14.450Z,4.55
2023-02-03T18:42:41.093Z,5.38
2023-02-03T18:45:10.685Z,4.20
2023-02-03T18:47:37.913Z,4.78
2023-02-03T18:50:05.132Z,3.67
2023-02-03T18:52:31.838Z,3.30
2023-02-03T18:54:58.587Z,3.78
2023-02-03T18:57:26.697Z,3.15
2023-02-03T18:59:53.388Z,4.55
2023-02-03T19:02:21.626Z,3.42
2023-02-03T19:04:48.498Z,3.22
2023-02-03T19:07:17.275Z,3.28
2023-02-03T19:09:44.004Z,3.90
2023-02-03T19:12:10.800Z,3.70
2023-02-03T19:14:37.529Z,3.00
2023-02-03T19:17:07.656Z,3.97
2023-02-03T19:19:34.340Z,4.20
2023-02-03T19:22:03.567Z,3.65
2023-02-03T19:24:30.167Z,3.75
2023-02-03T19:26:59.515Z,4.60
2023-02-03T19:29:33.562Z,4.03
2023-02-03T19:32:00.374Z,4.20
2023-02-03T19:34:28.461Z,3.83
2023-02-03T19:36:55.230Z,4.18
2023-02-03T19:39:23.109Z,4.25
2023-02-03T19:41:49.788Z,5.07
2023-02-03T19:44:16.434Z,4.30
2023-02-03T19:46:43.217Z,4.88
2023-02-03T19:49:13.044Z,4.32
2023-02-03T19:51:42.821Z,4.75
2023-02-03T19:54:15.126Z,4.55
2023-02-03T19:56:43.365Z,5.03
2023-02-03T19:59:10.562Z,5.18
2023-02-03T20:01:38.036Z,5.18
2023-02-03T20:04:07.461Z,4.63
2023-02-03T20:06:34.521Z,5.30
2023-02-03T20:09:01.651Z,5.57
2023-02-03T20:11:28.497Z,4.85
2023-02-03T20:13:55.218Z,5.28
2023-02-03T20:16:21.934Z,4.60
2023-02-03T20:18:58.082Z,4.93
2023-02-03T20:21:24.874Z,5.30
2023-02-03T20:23:54.210Z,4.82
2023-02-03T20:26:25.538Z,4.65
2023-02-03T20:28:52.249Z,5.72
2023-02-03T20:31:21.011Z,6.70
2023-02-03T20:33:47.763Z,3.97
2023-02-03T20:36:19.901Z,3.78
2023-02-03T20:38:46.829Z,3.42
2023-02-03T20:41:17.321Z,5.63
2023-02-03T20:43:44.056Z,4.82
2023-02-03T20:46:17.371Z,4.43
2023-02-03T20:48:44.467Z,5.25
2023-02-03T20:51:13.047Z,4.78
2023-02-03T20:53:40.765Z,4.43
2023-02-03T20:56:13.493Z,3.60
2023-02-03T20:58:41.026Z,3.35
2023-02-03T21:01:25.914Z,4.15
2023-02-03T21:04:12.035Z,4.18
2023-02-03T21:06:39.521Z,3.50
2023-02-03T21:09:18.531Z,4.63
2023-02-03T21:11:48.159Z,3.97
2023-02-03T21:14:23.440Z,5.20
2023-02-03T21:16:51.473Z,4.97
2023-02-03T21:19:29.191Z,5.00
2023-02-03T21:21:56.421Z,5.40
2023-02-03T21:24:31.596Z,5.85
2023-02-03T21:27:00.186Z,4.03
2023-02-03T21:29:33.291Z,5.40
2023-02-03T21:32:00.708Z,4.00
2023-02-03T21:34:31.208Z,3.25
2023-02-03T21:37:00.871Z,5.15
2023-02-03T21:39:33.476Z,6.35
2023-02-03T21:42:41.400Z,5.50
2023-02-03T21:45:36.213Z,2.75
2023-02-03T21:48:19.721Z,4.97
2023-02-03T21:50:46.586Z,5.32
2023-02-03T21:53:13.195Z,5.88
2023-02-03T21:55:42.308Z,4.38
2023-02-03T21:58:12.077Z,4.22
2023-02-03T22:00:43.285Z,4.28
2023-02-03T22:03:19.096Z,5.32
2023-02-03T22:05:46.803Z,3.97
2023-02-03T22:08:23.528Z,4.85
2023-02-03T22:10:50.261Z,5.00
2023-02-03T22:13:20.021Z,4.65
2023-02-03T22:15:48.755Z,5.13
2023-02-03T22:18:15.473Z,4.28
2023-02-03T22:20:42.172Z,5.43
2023-02-03T22:23:08.774Z,4.80
2023-02-03T22:25:35.522Z,6.40
2023-02-03T22:28:02.521Z,4.47
2023-02-03T22:30:29.657Z,5.60
2023-02-03T22:32:57.900Z,4.72
2023-02-03T22:35:25.581Z,4.45
2023-02-03T22:37:53.805Z,4.28
2023-02-03T22:40:21.213Z,5.40
2023-02-03T22:42:48.607Z,4.93
2023-02-03T22:45:15.812Z,5.07
2023-02-03T22:47:43.868Z,4.63
2023-02-03T22:50:12.457Z,5.72
2023-02-03T22:52:39.477Z,5.20
2023-02-03T22:55:07.340Z,3.80
2023-02-03T22:57:34.851Z,5.30
2023-02-03T23:00:01.600Z,5.35
2023-02-03T23:02:28.312Z,5.57
2023-02-03T23:04:55.357Z,6.43
2023-02-03T23:07:36.546Z,7.38
2023-02-03T23:10:12.078Z,6.93
2023-02-03T23:12:39.133Z,6.25
2023-02-03T23:15:06.396Z,6.22
2023-02-03T23:17:33.828Z,7.00
2023-02-03T23:20:00.548Z,6.03
2023-02-03T23:22:27.423Z,5.57
2023-02-03T23:24:54.077Z,5.03
2023-02-03T23:27:23.544Z,5.28
2023-02-03T23:29:50.420Z,5.03
2023-02-03T23:32:17.071Z,5.03
2023-02-03T23:35:02.414Z,5.50
2023-02-03T23:37:32.186Z,5.18
2023-02-03T23:39:58.897Z,5.32
2023-02-03T23:42:25.677Z,4.57
2023-02-03T23:44:55.870Z,4.63
2023-02-03T23:47:22.545Z,4.65
2023-02-03T23:49:50.673Z,4.60
2023-02-03T23:52:17.295Z,5.15
2023-02-03T23:54:43.932Z,5.00
2023-02-03T23:57:10.597Z,6.00
2023-02-03T23:59:40.244Z,5.00
